Time;durP1;ratioP1;P1;durP2;ratioP2;P2;SDS_P1;SDS_P2;PMS_P1;PMS_P2;Temp;Humidity;BMP_temperature;BMP_pressure;BME280_temperature;BME280_humidity;BME280_pressure;Samples;Min_cycle;Max_cycle;Signal;HPM_P1;HPM_P2
2023/06/22 00:02:25;;;;;;;23.45;14.48;;;;;;;22.66;77.76;100854.84;4972624;28;20097;-86
2023/06/22 00:04:50;;;;;;;29.10;14.93;;;;;;;22.69;77.88;100859.91;4972264;28;20031;-85
2023/06/22 00:07:16;;;;;;;26.88;15.48;;;;;;;22.84;77.79;100875.47;4971842;28;20039;-85
2023/06/22 00:09:41;;;;;;;27.60;17.60;;;;;;;22.72;77.95;100872.38;4972511;28;20026;-85
2023/06/22 00:12:07;;;;;;;27.00;17.33;;;;;;;22.76;78.07;100877.28;4973701;28;20038;-86
2023/06/22 00:14:40;;;;;;;24.50;17.52;;;;;;;22.70;78.31;100875.34;4974036;28;20030;-87
2023/06/22 00:17:06;;;;;;;28.50;17.55;;;;;;;22.68;78.64;100871.97;4977474;28;20027;-82
2023/06/22 00:19:32;;;;;;;21.58;17.70;;;;;;;22.50;78.65;100851.50;4978754;28;20050;-84
2023/06/22 00:22:00;;;;;;;24.60;17.92;;;;;;;22.53;78.67;100845.63;4991040;28;20035;-83
2023/06/22 00:24:25;;;;;;;28.70;18.88;;;;;;;22.70;78.13;100879.97;4996226;28;20035;-86
2023/06/22 00:26:51;;;;;;;29.88;17.63;;;;;;;22.64;78.38;100876.09;4990152;28;20031;-83
2023/06/22 00:29:18;;;;;;;28.80;19.27;;;;;;;22.72;78.55;100886.94;4975340;28;20034;-84
2023/06/22 00:31:43;;;;;;;29.85;20.67;;;;;;;22.65;78.41;100877.84;4972955;28;20035;-87
2023/06/22 00:34:09;;;;;;;41.00;21.05;;;;;;;22.48;79.05;100865.38;4972065;28;20035;-86
2023/06/22 00:36:36;;;;;;;35.95;20.20;;;;;;;22.55;78.98;100868.19;4971864;28;20033;-86
2023/06/22 00:39:01;;;;;;;33.50;20.13;;;;;;;22.53;78.86;100865.66;4972787;28;20387;-84
2023/06/22 00:41:29;;;;;;;45.67;18.48;;;;;;;22.36;77.69;100847.78;4972481;28;20038;-85
2023/06/22 00:43:56;;;;;;;21.25;14.48;;;;;;;22.52;76.87;100872.19;4973272;28;20061;-85
2023/06/22 00:46:22;;;;;;;27.02;15.90;;;;;;;22.40;76.18;100850.97;4973072;28;20062;-85
2023/06/22 00:48:49;;;;;;;30.10;16.23;;;;;;;22.65;75.83;100888.81;4981476;28;20031;-83
2023/06/22 00:51:15;;;;;;;28.20;17.50;;;;;;;22.58;75.15;100865.91;4984907;28;20054;-84
2023/06/22 00:53:43;;;;;;;30.60;18.95;;;;;;;22.66;75.72;100873.19;4977522;28;20027;-85
2023/06/22 00:56:08;;;;;;;46.00;22.33;;;;;;;22.63;76.37;100874.38;4977135;28;20455;-85
2023/06/22 00:58:36;;;;;;;31.88;20.95;;;;;;;22.67;77.08;100881.22;4975326;28;20046;-85
2023/06/22 01:01:02;;;;;;;35.95;21.75;;;;;;;22.67;77.30;100892.19;4976005;28;20118;-84
2023/06/22 01:03:27;;;;;;;52.47;22.25;;;;;;;22.48;78.45;100870.88;4977796;28;20037;-84
2023/06/22 01:06:02;;;;;;;39.67;23.25;;;;;;;22.50;78.82;100879.78;4977033;28;20033;-84
2023/06/22 01:08:38;;;;;;;48.55;23.73;;;;;;;22.30;78.55;100840.34;4977531;28;20081;-84
2023/06/22 01:11:12;;;;;;;51.65;21.80;;;;;;;22.49;78.72;100880.81;4976173;28;20050;-85
2023/06/22 01:13:43;;;;;;;37.05;22.40;;;;;;;22.52;78.80;100890.53;4977819;28;20033;-85
2023/06/22 01:16:13;;;;;;;38.00;22.05;;;;;;;22.52;78.99;100896.84;4978275;28;20034;-85
2023/06/22 01:18:42;;;;;;;42.25;21.27;;;;;;;22.32;79.49;100865.66;4986849;28;20030;-84
2023/06/22 01:21:11;;;;;;;47.22;23.25;;;;;;;22.25;80.51;100870.22;5001186;28;20033;-84
2023/06/22 01:23:51;;;;;;;52.03;23.83;;;;;;;22.33;80.66;100881.06;4992655;28;20034;-84
2023/06/22 01:26:21;;;;;;;35.30;23.08;;;;;;;22.35;80.64;100887.22;4977058;28;20034;-85
2023/06/22 01:28:51;;;;;;;43.92;24.60;;;;;;;22.28;81.01;100874.47;4976740;28;20033;-83
2023/06/22 01:31:20;;;;;;;34.55;20.95;;;;;;;22.20;80.78;100864.47;4975524;28;20023;-83
2023/06/22 01:33:55;;;;;;;26.17;17.30;;;;;;;22.21;80.40;100874.38;4976587;28;20031;-83
2023/06/22 01:36:22;;;;;;;30.30;19.10;;;;;;;22.15;79.98;100853.25;4976095;28;20026;-83
2023/06/22 01:38:49;;;;;;;33.55;17.90;;;;;;;22.13;78.72;100863.56;4976277;28;20133;-84
2023/06/22 01:41:15;;;;;;;18.70;11.95;;;;;;;22.21;76.21;100874.38;4976340;28;20399;-85
2023/06/22 01:43:42;;;;;;;22.05;13.95;;;;;;;22.22;74.50;100863.25;4976041;28;20034;-85
2023/06/22 01:46:08;;;;;;;19.70;10.15;;;;;;;22.46;71.33;100877.59;4976382;28;20092;-85
2023/06/22 01:48:34;;;;;;;17.15;10.63;;;;;;;22.49;70.00;100871.72;4976567;28;20136;-86
2023/06/22 01:50:59;;;;;;;11.20;9.55;;;;;;;22.57;69.68;100879.81;4975779;28;20026;-85
2023/06/22 01:53:25;;;;;;;14.00;8.48;;;;;;;22.66;68.58;100878.66;4975538;28;20530;-83
2023/06/22 01:55:51;;;;;;;19.88;9.02;;;;;;;22.59;68.03;100859.41;4975725;28;20027;-85
2023/06/22 01:58:16;;;;;;;14.52;9.98;;;;;;;22.72;67.76;100878.72;4990950;28;20082;-85
2023/06/22 02:00:50;;;;;;;13.75;8.52;;;;;;;22.73;67.30;100871.34;4995394;28;20027;-83
2023/06/22 02:03:26;;;;;;;22.15;9.95;;;;;;;22.72;67.23;100861.41;4977866;28;20030;-84
2023/06/22 02:06:01;;;;;;;13.65;9.27;;;;;;;22.75;66.94;100867.34;4978563;28;20038;-82
2023/06/22 02:08:34;;;;;;;16.77;9.77;;;;;;;22.59;66.85;100834.72;4996262;28;20057;-84
2023/06/22 02:11:02;;;;;;;16.63;9.60;;;;;;;22.74;66.53;100868.44;4955101;29;20039;-84
2023/06/22 02:13:27;;;;;;;18.38;9.77;;;;;;;22.87;66.55;100888.78;4955085;29;20043;-85
2023/06/22 02:15:53;;;;;;;19.33;9.60;;;;;;;22.92;66.34;100894.50;4966563;28;20071;-82
2023/06/22 02:18:20;;;;;;;18.38;10.75;;;;;;;22.85;66.11;100877.13;4972042;28;20035;-88
2023/06/22 02:20:46;;;;;;;21.20;10.02;;;;;;;22.93;66.08;100879.75;4976508;28;20039;-87
2023/06/22 02:23:11;;;;;;;11.98;9.25;;;;;;;22.95;65.73;100875.75;4977006;28;20108;-87
2023/06/22 02:25:38;;;;;;;21.73;11.85;;;;;;;23.04;65.79;100880.06;4969805;29;20069;-85
2023/06/22 02:28:04;;;;;;;22.58;13.25;;;;;;;23.15;67.00;100890.47;4971875;29;20031;-84
2023/06/22 02:30:29;;;;;;;29.33;14.57;;;;;;;23.18;67.32;100883.72;4972329;29;20050;-85
2023/06/22 02:32:58;;;;;;;21.35;15.27;;;;;;;23.23;68.13;100905.94;4961421;28;20035;-86
2023/06/22 02:35:31;;;;;;;38.80;17.15;;;;;;;23.13;68.51;100884.34;4977346;28;20036;-84
2023/06/22 02:38:00;;;;;;;34.42;16.08;;;;;;;23.21;68.56;100908.03;4966369;28;20039;-85
2023/06/22 02:40:26;;;;;;;24.90;15.55;;;;;;;23.11;69.14;100893.81;4962261;29;20179;-85
2023/06/22 02:42:52;;;;;;;34.05;18.20;;;;;;;23.13;69.70;100909.03;4970222;28;20038;-84
2023/06/22 02:45:17;;;;;;;31.25;17.58;;;;;;;23.07;69.87;100903.50;4992616;28;20414;-87
2023/06/22 02:47:43;;;;;;;38.28;16.10;;;;;;;23.11;69.82;100910.28;4993403;28;20023;-84
2023/06/22 02:50:09;;;;;;;35.03;15.45;;;;;;;23.18;69.45;100924.88;4994188;28;20041;-85
2023/06/22 02:52:35;;;;;;;41.33;17.83;;;;;;;23.09;69.74;100923.34;4995121;28;20030;-83
2023/06/22 02:55:00;;;;;;;30.75;16.30;;;;;;;22.95;70.40;100899.59;4999159;28;20462;-85
2023/06/22 02:57:26;;;;;;;32.30;17.58;;;;;;;22.87;70.40;100902.50;4992316;28;20053;-86
2023/06/22 02:59:51;;;;;;;22.80;12.05;;;;;;;22.94;69.69;100914.34;4974885;28;20026;-85
2023/06/22 03:02:17;;;;;;;22.35;12.57;;;;;;;22.99;68.49;100920.13;4993040;28;20097;-86
2023/06/22 03:04:43;;;;;;;20.92;11.23;;;;;;;22.92;67.81;100906.34;4976466;28;20030;-84
2023/06/22 03:07:08;;;;;;;18.98;10.82;;;;;;;23.13;67.07;100941.97;4995046;28;20033;-86
2023/06/22 03:09:34;;;;;;;15.18;10.95;;;;;;;23.04;67.48;100920.34;4977696;28;20041;-84
2023/06/22 03:12:00;;;;;;;16.17;10.23;;;;;;;23.02;67.05;100897.75;5003040;28;20045;-84
2023/06/22 03:14:26;;;;;;;18.33;9.85;;;;;;;23.16;66.22;100916.00;5017553;28;20010;-90
2023/06/22 03:16:51;;;;;;;29.05;11.65;;;;;;;23.18;66.26;100933.97;5010617;28;20060;-85
2023/06/22 03:19:17;;;;;;;20.25;10.25;;;;;;;23.17;66.11;100926.81;4993302;28;20101;-86
2023/06/22 03:21:42;;;;;;;18.98;11.30;;;;;;;23.23;66.35;100923.28;4974849;28;20023;-85
2023/06/22 03:24:08;;;;;;;16.90;11.95;;;;;;;23.30;66.84;100942.53;4992727;28;20702;-87
2023/06/22 03:26:34;;;;;;;27.60;11.77;;;;;;;23.35;66.83;100933.69;4993373;28;20030;-85
2023/06/22 03:29:00;;;;;;;20.98;11.75;;;;;;;23.29;67.52;100938.09;4992560;28;20030;-86
2023/06/22 03:31:25;;;;;;;24.92;11.98;;;;;;;23.30;67.40;100948.03;4993254;28;20031;-85
2023/06/22 03:33:51;;;;;;;24.92;11.85;;;;;;;23.23;67.42;100930.66;4993816;28;20018;-85
2023/06/22 03:36:20;;;;;;;30.88;13.00;;;;;;;23.30;67.16;100926.06;4993472;28;20034;-89
2023/06/22 03:38:47;;;;;;;20.58;11.65;;;;;;;23.27;67.28;100920.97;4991865;28;20486;-88
2023/06/22 03:41:13;;;;;;;23.80;11.88;;;;;;;23.43;66.84;100934.41;4991921;28;20117;-85
2023/06/22 03:43:39;;;;;;;34.50;11.18;;;;;;;23.38;66.43;100928.66;4996728;28;20057;-91
2023/06/22 03:46:04;;;;;;;26.17;11.68;;;;;;;23.31;66.43;100922.25;4992795;28;20033;-90
2023/06/22 03:48:30;;;;;;;67.65;14.32;;;;;;;23.52;66.36;100935.94;4976880;28;20092;-91
2023/06/22 03:50:55;;;;;;;22.55;9.40;;;;;;;23.58;63.89;100937.88;4992996;28;20027;-86
2023/06/22 03:53:21;;;;;;;18.55;8.63;;;;;;;23.58;63.28;100924.16;4990919;28;20026;-86
2023/06/22 03:55:51;;;;;;;13.98;9.18;;;;;;;23.69;62.40;100931.84;4994123;28;20445;-87
2023/06/22 03:58:18;;;;;;;25.55;9.95;;;;;;;23.80;62.57;100952.38;4992289;28;20054;-86
2023/06/22 04:00:49;;;;;;;110.72;18.80;;;;;;;23.78;62.62;100933.38;4992123;28;20491;-79
2023/06/22 04:03:15;;;;;;;54.03;13.07;;;;;;;23.89;62.51;100942.06;4994044;28;20045;-85
2023/06/22 04:05:41;;;;;;;28.17;10.95;;;;;;;23.89;62.00;100942.06;4977797;28;20026;-81
2023/06/22 04:08:06;;;;;;;40.80;11.82;;;;;;;23.98;61.64;100952.69;5000275;28;20140;-92
2023/06/22 04:10:32;;;;;;;28.60;9.63;;;;;;;24.06;60.87;100941.53;5033618;28;20074;-91
2023/06/22 04:12:57;;;;;;;20.30;9.75;;;;;;;24.18;60.31;100941.81;5034498;28;20056;-93
2023/06/22 04:15:23;;;;;;;20.98;8.90;;;;;;;24.22;60.29;100932.09;5015947;28;20025;-92
2023/06/22 04:17:51;;;;;;;21.92;8.35;;;;;;;24.23;59.91;100929.16;5013036;28;20120;-84
2023/06/22 04:20:16;;;;;;;27.23;9.00;;;;;;;24.25;59.21;100918.78;5012273;28;20026;-85
2023/06/22 04:22:42;;;;;;;18.70;9.95;;;;;;;24.46;59.37;100953.56;5011744;28;20849;-85
2023/06/22 04:25:08;;;;;;;48.55;11.25;;;;;;;24.22;58.85;100921.09;5013142;28;20414;-87
2023/06/22 04:27:40;;;;;;;38.53;8.82;;;;;;;24.52;58.74;100960.97;5016067;28;20427;-86
2023/06/22 04:30:07;;;;;;;36.58;8.68;;;;;;;24.37;58.89;100924.56;5015406;28;20049;-82
2023/06/22 04:32:36;;;;;;;58.08;11.38;;;;;;;24.66;59.04;100959.09;5013838;28;20030;-84
2023/06/22 04:35:04;;;;;;;42.03;10.77;;;;;;;24.71;58.13;100956.53;5013125;28;20030;-82
2023/06/22 04:37:30;;;;;;;36.70;9.57;;;;;;;24.73;57.69;100938.81;5012162;28;20037;-79
2023/06/22 04:39:58;;;;;;;23.48;9.05;;;;;;;24.81;57.77;100937.78;5012398;28;20041;-88
2023/06/22 04:42:28;;;;;;;42.08;11.05;;;;;;;24.91;57.72;100954.72;4985120;28;20418;-92
2023/06/22 04:44:53;;;;;;;64.55;12.98;;;;;;;25.03;58.30;100965.94;4979539;28;20030;-94
2023/06/22 04:47:19;;;;;;;21.88;10.25;;;;;;;25.13;57.80;100958.13;4978780;28;20865;-93
2023/06/22 04:49:44;;;;;;;58.42;10.60;;;;;;;25.20;57.84;100969.97;4986134;28;20034;-95
2023/06/22 04:52:12;;;;;;;29.52;8.77;;;;;;;25.34;57.71;100966.16;4985987;28;20030;-92
2023/06/22 04:54:47;;;;;;;50.40;10.45;;;;;;;25.38;58.04;100973.78;4985416;28;20034;-95
2023/06/22 04:57:14;;;;;;;34.00;10.13;;;;;;;25.52;57.49;100977.41;4982692;28;20054;-93
2023/06/22 04:59:41;;;;;;;40.13;9.50;;;;;;;25.60;57.11;100979.94;4991947;28;20061;-91
2023/06/22 05:02:08;;;;;;;31.50;12.57;;;;;;;25.56;56.69;100964.91;4965585;28;20061;-85
2023/06/22 05:04:35;;;;;;;18.23;8.13;;;;;;;25.66;56.72;100976.31;4995800;28;20037;-86
2023/06/22 05:07:02;;;;;;;25.38;9.10;;;;;;;25.76;56.87;100973.97;5013849;28;20053;-84
2023/06/22 05:09:28;;;;;;;21.30;8.57;;;;;;;25.85;56.48;100967.16;5029083;28;20137;-77
2023/06/22 05:11:54;;;;;;;15.48;9.48;;;;;;;25.86;56.40;100973.53;5012031;28;20052;-78
2023/06/22 05:14:19;;;;;;;30.60;9.80;;;;;;;25.81;56.61;100968.66;5011304;28;20485;-78
2023/06/22 05:16:46;;;;;;;41.70;10.00;;;;;;;26.03;56.68;100971.13;5013178;28;20038;-88
2023/06/22 05:19:12;;;;;;;27.15;9.45;;;;;;;26.00;55.87;100961.41;5014490;28;20030;-83
2023/06/22 05:21:38;;;;;;;32.83;8.63;;;;;;;26.22;55.39;100973.00;5015720;28;20112;-81
2023/06/22 05:24:04;;;;;;;33.83;8.82;;;;;;;26.32;55.53;100979.78;5014788;28;20021;-81
2023/06/22 05:26:31;;;;;;;39.53;10.02;;;;;;;26.34;55.26;100963.00;5011627;28;20034;-80
2023/06/22 05:28:57;;;;;;;19.65;8.50;;;;;;;26.41;54.98;100983.13;5011242;28;20164;-79
2023/06/22 05:31:23;;;;;;;30.70;8.48;;;;;;;26.26;55.23;100966.00;5011386;28;20029;-80
2023/06/22 05:33:51;;;;;;;38.33;10.05;;;;;;;26.49;54.95;100985.63;5011986;28;20449;-80
2023/06/22 05:36:16;;;;;;;40.88;10.52;;;;;;;26.49;54.89;100978.19;5010389;28;20065;-83
2023/06/22 05:38:42;;;;;;;10.18;7.88;;;;;;;26.47;54.70;100957.41;5012497;28;20038;-80
2023/06/22 05:41:08;;;;;;;26.60;8.27;;;;;;;26.51;54.73;100955.91;5012796;28;20525;-84
2023/06/22 05:43:34;;;;;;;23.50;10.60;;;;;;;26.39;56.04;100971.47;5017740;28;20021;-88
2023/06/22 05:46:01;;;;;;;35.42;11.32;;;;;;;26.42;56.50;100971.84;5020413;28;20037;-85
2023/06/22 05:48:27;;;;;;;37.65;9.77;;;;;;;26.42;56.67;100979.31;5017696;28;20034;-86
2023/06/22 05:50:53;;;;;;;35.80;12.27;;;;;;;26.45;56.70;100979.69;4955840;28;20049;-83
2023/06/22 05:53:19;;;;;;;21.92;10.63;;;;;;;26.47;56.47;100973.97;4955782;28;20410;-84
2023/06/22 05:55:45;;;;;;;28.48;10.23;;;;;;;26.57;56.30;100966.06;4976946;28;20141;-86
2023/06/22 05:58:11;;;;;;;26.85;9.50;;;;;;;26.65;55.98;100965.78;4974203;28;20050;-84
2023/06/22 06:00:36;;;;;;;23.42;9.82;;;;;;;26.67;55.99;100960.88;4973037;28;20049;-84
2023/06/22 06:03:03;;;;;;;35.45;11.77;;;;;;;26.75;55.83;100955.13;4985768;28;20034;-87
2023/06/22 06:05:33;;;;;;;34.85;11.98;;;;;;;26.99;55.40;100976.44;4991502;28;20045;-81
2023/06/22 06:07:59;;;;;;;14.07;7.30;;;;;;;27.00;54.52;100967.06;4967837;28;20411;-82
2023/06/22 06:10:25;;;;;;;11.20;6.65;;;;;;;26.96;52.99;100946.50;4951849;29;20466;-86
2023/06/22 06:12:50;;;;;;;28.45;10.93;;;;;;;27.16;53.61;100962.06;4951743;29;20055;-84
2023/06/22 06:15:16;;;;;;;20.80;7.85;;;;;;;27.16;52.96;100942.72;4951673;29;20035;-90
2023/06/22 06:17:48;;;;;;;36.65;7.90;;;;;;;27.06;53.00;100928.59;4952313;29;20089;-87
2023/06/22 06:20:14;;;;;;;;;;;;;;;27.45;51.87;100978.00;4954161;29;20027;-85
2023/06/22 06:22:40;;;;;;;101.75;13.35;;;;;;;27.39;50.97;100973.34;4987915;28;20441;-85
2023/06/22 06:25:06;;;;;;;19.60;7.90;;;;;;;27.39;50.66;100959.53;4961894;28;20042;-84
2023/06/22 06:27:31;;;;;;;19.13;7.75;;;;;;;27.26;50.17;100935.63;4994204;28;20034;-85
2023/06/22 06:29:57;;;;;;;20.98;7.75;;;;;;;27.43;50.69;100949.75;4995040;28;20041;-85
2023/06/22 06:32:23;;;;;;;25.63;8.77;;;;;;;27.63;50.52;100953.16;4994915;28;20104;-84
2023/06/22 06:34:49;;;;;;;66.10;12.85;;;;;;;27.88;49.99;100970.53;4976496;28;20391;-85
2023/06/22 06:37:15;;;;;;;17.92;7.60;;;;;;;27.95;49.29;100957.47;4961377;28;20105;-84
2023/06/22 06:39:41;;;;;;;18.40;7.18;;;;;;;28.02;49.63;100969.31;4994540;28;20058;-83
2023/06/22 06:42:07;;;;;;;33.03;10.23;;;;;;;28.09;49.66;100972.88;4995100;28;20084;-83
2023/06/22 06:44:33;;;;;;;18.80;6.90;;;;;;;27.90;49.29;100926.06;4996060;28;20113;-84
2023/06/22 06:46:58;;;;;;;36.63;10.02;;;;;;;28.13;49.31;100961.34;5000195;28;20030;-84
2023/06/22 06:49:36;;;;;;;21.73;7.13;;;;;;;28.10;49.29;100937.78;5001564;28;20494;-85
2023/06/22 06:52:02;;;;;;;26.10;8.23;;;;;;;28.18;48.11;100931.06;4980874;28;20027;-83
2023/06/22 06:54:28;;;;;;;19.08;8.40;;;;;;;28.46;47.54;100970.06;4996359;28;20037;-82
2023/06/22 06:56:54;;;;;;;34.78;8.25;;;;;;;28.60;47.09;100971.56;4996081;28;20061;-83
2023/06/22 06:59:20;;;;;;;39.88;8.00;;;;;;;28.45;47.18;100935.16;4989607;28;20022;-85
2023/06/22 07:01:48;;;;;;;43.28;14.35;;;;;;;28.53;47.04;100938.44;4985880;28;20026;-83
2023/06/22 07:04:14;;;;;;;10.15;6.85;;;;;;;28.65;46.81;100960.69;4976840;28;20030;-84
2023/06/22 07:06:40;;;;;;;15.32;7.70;;;;;;;28.68;47.82;100968.50;4958211;28;20281;-84
2023/06/22 07:09:05;;;;;;;30.05;8.65;;;;;;;28.49;49.00;100950.22;4958278;28;20455;-84
2023/06/22 07:11:31;;;;;;;24.52;9.52;;;;;;;28.36;49.25;100942.94;4958629;28;20054;-84
2023/06/22 07:13:57;;;;;;;18.60;7.93;;;;;;;28.37;49.11;100969.53;4975348;28;20027;-85
2023/06/22 07:16:23;;;;;;;22.45;7.90;;;;;;;28.29;48.72;100974.53;4974611;28;20027;-85
2023/06/22 07:18:49;;;;;;;20.02;9.13;;;;;;;28.06;49.45;100951.22;4975173;28;20030;-83
2023/06/22 07:21:14;;;;;;;28.98;9.05;;;;;;;28.13;49.61;100969.66;4953810;29;20051;-83
2023/06/22 07:30:26;;;;;;;9.82;7.00;;;;;;;27.80;50.05;100968.06;4954247;29;20042;-83
2023/06/22 07:32:52;;;;;;;17.00;7.47;;;;;;;27.85;49.59;100964.63;4953697;29;20071;-84
2023/06/22 07:35:18;;;;;;;8.65;7.10;;;;;;;27.80;49.59;100954.22;4954159;29;20062;-84
2023/06/22 07:37:47;;;;;;;25.48;9.13;;;;;;;27.94;49.32;100964.09;4953371;29;20528;-85
2023/06/22 07:40:13;;;;;;;16.30;9.52;;;;;;;28.29;49.23;100980.06;4953664;29;20071;-83
2023/06/22 07:42:39;;;;;;;22.80;8.93;;;;;;;28.13;49.26;100953.06;4954341;29;20557;-83
2023/06/22 07:45:07;;;;;;;31.92;9.90;;;;;;;28.22;49.44;100957.19;4937832;29;20078;-84
2023/06/22 07:47:36;;;;;;;18.45;9.13;;;;;;;28.30;49.00;100956.84;4953932;29;20035;-83
2023/06/22 07:50:02;;;;;;;21.80;8.50;;;;;;;28.36;49.58;100965.06;4953830;29;20042;-84
2023/06/22 07:52:28;;;;;;;18.85;8.25;;;;;;;28.40;49.61;100971.00;4957559;29;20079;-83
2023/06/22 07:54:54;;;;;;;15.90;7.97;;;;;;;28.49;49.99;101002.81;4963449;29;20057;-84
2023/06/22 07:57:20;;;;;;;72.75;13.70;;;;;;;28.18;50.42;100978.09;4970281;29;20051;-83
2023/06/22 07:59:47;;;;;;;17.85;8.35;;;;;;;28.16;50.66;100969.19;4966879;28;20121;-84
2023/06/22 08:02:12;;;;;;;31.52;10.70;;;;;;;27.94;51.87;100961.31;4956672;29;20492;-85
2023/06/22 08:04:39;;;;;;;28.55;9.90;;;;;;;28.09;52.15;100974.78;4957062;29;20090;-83
2023/06/22 08:07:05;;;;;;;22.23;8.73;;;;;;;28.44;52.32;101006.25;4956544;28;20066;-84
2023/06/22 08:09:37;;;;;;;26.88;9.57;;;;;;;28.33;52.51;100967.47;4955890;29;20042;-84
2023/06/22 08:12:02;;;;;;;93.45;13.73;;;;;;;28.41;52.55;100969.91;4957515;29;20452;-83
2023/06/22 08:14:29;;;;;;;41.97;10.38;;;;;;;28.48;52.48;100960.44;4972750;29;20043;-83
2023/06/22 08:16:55;;;;;;;14.90;8.30;;;;;;;28.58;52.73;100962.66;4973300;28;20062;-83
2023/06/22 08:19:21;;;;;;;11.88;8.00;;;;;;;28.50;53.38;100968.53;4964500;29;20019;-85
2023/06/22 08:21:47;;;;;;;14.57;8.95;;;;;;;28.76;53.58;100995.84;4965027;28;20039;-83
2023/06/22 08:24:13;;;;;;;23.33;8.98;;;;;;;28.73;53.86;100987.16;4938288;29;20059;-84
2023/06/22 08:26:39;;;;;;;15.27;8.07;;;;;;;28.33;53.88;100964.69;4965579;28;20127;-83
2023/06/22 08:29:05;;;;;;;15.57;9.13;;;;;;;28.30;54.36;100976.22;4977674;28;20022;-84
2023/06/22 08:31:34;;;;;;;118.18;18.10;;;;;;;28.15;54.45;100950.88;4976775;28;20020;-85
2023/06/22 08:34:00;;;;;;;17.17;8.93;;;;;;;28.19;54.56;100958.50;4977397;28;20091;-84
2023/06/22 08:39:50;;;;;;;18.73;8.90;;;;;;;27.91;54.71;100959.03;4965156;29;20035;-85
2023/06/22 08:42:16;;;;;;;11.88;8.25;;;;;;;27.94;54.18;100966.84;4941757;29;20433;-84
2023/06/22 08:44:45;;;;;;;44.88;12.35;;;;;;;27.97;53.96;100955.34;4954453;29;20024;-84
2023/06/22 08:47:10;;;;;;;23.17;8.82;;;;;;;28.00;53.73;100965.94;4954890;29;20059;-85
2023/06/22 08:49:36;;;;;;;12.77;7.95;;;;;;;28.33;53.51;100992.38;4954596;29;20035;-85
2023/06/22 08:52:07;;;;;;;13.85;7.82;;;;;;;28.32;53.09;100965.75;4966015;29;20039;-84
2023/06/22 08:54:34;;;;;;;21.13;7.80;;;;;;;28.43;52.75;100948.41;4971341;28;20031;-84
2023/06/22 08:57:02;;;;;;;20.02;7.93;;;;;;;28.55;53.27;100965.88;4964301;28;20098;-85
2023/06/22 08:59:28;;;;;;;20.67;7.38;;;;;;;28.60;53.74;100993.69;4954042;29;20046;-83
2023/06/22 09:01:56;;;;;;;12.38;8.20;;;;;;;28.76;53.37;100982.00;4954760;29;20418;-85
2023/06/22 09:04:22;;;;;;;22.73;8.95;;;;;;;29.07;53.00;100970.66;4954118;29;20031;-84
2023/06/22 09:06:52;;;;;;;20.23;8.48;;;;;;;28.92;52.34;100953.66;4954252;29;20031;-84
2023/06/22 09:09:18;;;;;;;22.02;8.93;;;;;;;28.52;53.50;100958.06;4954066;29;20030;-84
2023/06/22 09:11:43;;;;;;;14.05;9.27;;;;;;;28.24;53.59;100955.03;4956406;28;20499;-83
2023/06/22 09:14:10;;;;;;;24.00;10.55;;;;;;;28.23;54.64;100975.47;4957333;29;20058;-84
2023/06/22 09:16:38;;;;;;;15.48;8.98;;;;;;;28.46;54.78;100997.75;4935909;29;20058;-84
2023/06/22 09:19:04;;;;;;;92.68;15.93;;;;;;;28.23;54.99;100978.22;4936687;29;20046;-85
2023/06/22 09:34:55;;;;;;;20.90;10.63;;;;;;;27.86;60.00;100986.50;4936242;29;20097;-84
2023/06/22 09:37:24;;;;;;;27.52;11.93;;;;;;;27.77;60.34;100974.03;4936270;29;20031;-83
2023/06/22 09:39:50;;;;;;;32.08;13.52;;;;;;;27.65;60.28;100973.09;4936402;29;20035;-84
2023/06/22 09:42:16;;;;;;;15.95;11.18;;;;;;;27.59;60.35;100974.03;4936156;29;20039;-84
2023/06/22 09:44:56;;;;;;;40.78;12.85;;;;;;;27.75;59.47;100980.88;4936287;29;20191;-85
2023/06/22 09:47:25;;;;;;;60.88;14.10;;;;;;;27.80;58.72;100976.34;4936298;29;20048;-83
2023/06/22 09:49:50;;;;;;;22.90;11.57;;;;;;;27.73;57.90;100989.41;4953162;29;20028;-84
2023/06/22 09:52:22;;;;;;;30.17;10.50;;;;;;;27.76;57.72;100997.25;4954138;29;20036;-83
2023/06/22 09:54:47;;;;;;;34.47;11.75;;;;;;;27.70;57.20;100986.25;4953962;29;20050;-84
2023/06/22 09:57:13;;;;;;;16.27;11.52;;;;;;;27.51;60.17;100989.00;4955005;28;20051;-84
2023/06/22 09:59:41;;;;;;;19.60;10.35;;;;;;;27.45;60.64;100983.53;4956788;29;20034;-84
2023/06/22 10:02:07;;;;;;;21.52;11.80;;;;;;;27.36;60.43;100993.13;4956973;29;20039;-84
2023/06/22 10:04:36;;;;;;;18.23;11.43;;;;;;;27.52;60.99;101006.41;4956444;28;20373;-84
2023/06/22 10:07:03;;;;;;;23.10;11.20;;;;;;;27.48;60.71;100983.06;4955299;29;20031;-85
2023/06/22 10:09:28;;;;;;;20.45;10.50;;;;;;;27.63;59.97;100997.38;4956993;29;20034;-83
2023/06/22 10:11:57;;;;;;;27.27;12.23;;;;;;;27.93;58.60;101028.75;4955783;29;20414;-85
2023/06/22 10:14:24;;;;;;;17.67;10.95;;;;;;;27.83;58.57;100997.16;4956681;28;20054;-84
2023/06/22 10:16:52;;;;;;;19.90;10.80;;;;;;;27.72;58.98;101007.06;4956510;29;20062;-84
2023/06/22 10:19:26;;;;;;;16.80;11.52;;;;;;;27.79;59.87;100995.94;4955503;29;20046;-83
2023/06/22 10:21:51;;;;;;;25.05;11.15;;;;;;;27.93;57.67;100992.81;4956623;28;20037;-82
2023/06/22 10:24:17;;;;;;;25.17;10.27;;;;;;;28.06;56.49;100981.63;4959901;28;20039;-82
2023/06/22 10:26:53;;;;;;;29.23;10.48;;;;;;;28.40;55.29;101010.59;4962562;29;20063;-81
2023/06/22 10:29:20;;;;;;;23.27;9.48;;;;;;;28.33;54.48;100984.06;4958529;28;20035;-83
2023/06/22 10:58:40;;;;;;;165.50;29.55;;;;;;;29.38;58.26;100990.88;5007325;28;20056;-88
2023/06/22 11:01:06;;;;;;;19.35;11.18;;;;;;;29.30;58.13;100989.28;5010815;28;20049;-85
2023/06/22 11:03:31;;;;;;;17.92;9.88;;;;;;;29.38;56.44;100990.88;5011740;28;20034;-84
2023/06/22 11:05:57;;;;;;;29.77;11.77;;;;;;;29.38;57.53;100982.56;5012659;28;20042;-82
2023/06/22 11:08:22;;;;;;;44.60;11.15;;;;;;;29.62;56.48;100993.41;5012464;28;20113;-82
2023/06/22 11:10:48;;;;;;;23.23;10.48;;;;;;;29.35;56.15;100996.88;5012982;28;20048;-83
2023/06/22 11:13:13;;;;;;;35.38;13.93;;;;;;;29.16;56.96;100988.63;5012894;28;20034;-83
2023/06/22 11:15:39;;;;;;;40.83;14.77;;;;;;;28.94;58.50;100995.78;5012812;28;20042;-84
2023/06/22 11:18:06;;;;;;;15.82;10.35;;;;;;;28.54;58.45;100997.41;5012750;28;20096;-84
2023/06/22 11:20:38;;;;;;;15.10;11.10;;;;;;;28.40;59.87;100988.44;5012556;28;20478;-85
2023/06/22 11:23:05;;;;;;;23.87;10.23;;;;;;;28.14;61.45;101008.13;5012991;28;20026;-82
2023/06/22 11:25:31;;;;;;;42.70;13.90;;;;;;;27.89;62.84;101005.38;5013724;28;20065;-84
2023/06/22 11:27:56;;;;;;;66.22;15.02;;;;;;;28.08;63.08;100990.53;5012901;28;20042;-84
2023/06/22 11:30:23;;;;;;;23.05;11.25;;;;;;;28.27;62.97;100976.69;4995807;28;20092;-83
2023/06/22 11:32:48;;;;;;;23.48;10.60;;;;;;;28.23;62.99;100975.47;5013962;28;20057;-84
2023/06/22 11:35:14;;;;;;;16.05;10.88;;;;;;;28.39;62.04;100974.84;5013174;28;20056;-84
2023/06/22 11:37:40;;;;;;;26.38;12.30;;;;;;;28.38;62.03;100968.44;5014251;28;20127;-84
2023/06/22 11:40:08;;;;;;;33.95;13.00;;;;;;;28.42;62.96;100990.97;5012568;28;20034;-85
2023/06/22 11:42:34;;;;;;;41.90;16.90;;;;;;;28.44;63.24;100977.75;5024737;28;20041;-87
2023/06/22 11:45:00;;;;;;;13.77;10.63;;;;;;;28.68;63.28;100979.59;5011905;28;20042;-86
2023/06/22 11:47:25;;;;;;;25.40;11.32;;;;;;;28.86;62.94;100978.69;5020231;28;20040;-84
2023/06/22 11:49:51;;;;;;;66.68;17.00;;;;;;;29.01;60.83;100977.16;5012370;28;20379;-84
2023/06/22 11:52:17;;;;;;;30.80;11.65;;;;;;;29.23;60.86;100998.75;5012646;28;20096;-85
2023/06/22 11:54:43;;;;;;;30.95;12.30;;;;;;;29.20;60.75;100996.47;5012453;28;20121;-83
2023/06/22 11:57:09;;;;;;;21.70;9.73;;;;;;;29.24;61.44;101006.84;5012249;28;20085;-84
2023/06/22 11:59:34;;;;;;;18.67;11.27;;;;;;;28.88;62.90;100985.66;5012531;28;20041;-85
2023/06/22 12:02:00;;;;;;;20.50;10.93;;;;;;;28.73;62.15;100960.34;5012788;28;20048;-83